sensor_id;sensor_type;location;lat;lon;timestamp;temperature;humidity
39019;DHT22;24786;51.984;5.872;2022-10-29T00:01:16;14.30;99.90
39019;DHT22;24786;51.984;5.872;2022-10-29T00:03:42;14.40;99.90
39019;DHT22;24786;51.984;5.872;2022-10-29T00:06:10;14.30;99.90
39019;DHT22;24786;51.984;5.872;2022-10-29T00:08:37;14.30;99.90
39019;DHT22;24786;51.984;5.872;2022-10-29T00:11:09;14.20;99.90
39019;DHT22;24786;51.984;5.872;2022-10-29T00:13:35;14.30;99.90
39019;DHT22;24786;51.984;5.872;2022-10-29T00:16:22;14.30;99.90
39019;DHT22;24786;51.984;5.872;2022-10-29T00:18:48;14.10;99.90
39019;DHT22;24786;51.984;5.872;2022-10-29T00:21:19;14.20;99.90
39019;DHT22;24786;51.984;5.872;2022-10-29T00:23:45;14.20;99.90
39019;DHT22;24786;51.984;5.872;2022-10-29T00:26:12;14.20;99.90
39019;DHT22;24786;51.984;5.872;2022-10-29T00:28:38;14.10;99.90
39019;DHT22;24786;51.984;5.872;2022-10-29T00:31:04;14.30;99.90
39019;DHT22;24786;51.984;5.872;2022-10-29T00:33:31;14.20;99.90
39019;DHT22;24786;51.984;5.872;2022-10-29T00:36:05;14.20;99.90
39019;DHT22;24786;51.984;5.872;2022-10-29T00:38:32;14.20;99.90
39019;DHT22;24786;51.984;5.872;2022-10-29T00:40:58;14.20;99.90
39019;DHT22;24786;51.984;5.872;2022-10-29T00:43:25;14.20;99.90
39019;DHT22;24786;51.984;5.872;2022-10-29T00:45:57;14.10;99.90
39019;DHT22;24786;51.984;5.872;2022-10-29T00:48:25;14.10;99.90
39019;DHT22;24786;51.984;5.872;2022-10-29T00:50:52;14.10;99.90
39019;DHT22;24786;51.984;5.872;2022-10-29T00:53:21;14.10;99.90
39019;DHT22;24786;51.984;5.872;2022-10-29T00:55:48;14.10;99.90
39019;DHT22;24786;51.984;5.872;2022-10-29T00:58:14;14.10;99.90
39019;DHT22;24786;51.984;5.872;2022-10-29T01:00:40;14.00;99.90
39019;DHT22;24786;51.984;5.872;2022-10-29T01:03:06;14.00;99.90
39019;DHT22;24786;51.984;5.872;2022-10-29T01:05:33;14.00;99.90
39019;DHT22;24786;51.984;5.872;2022-10-29T01:08:00;14.10;99.90
39019;DHT22;24786;51.984;5.872;2022-10-29T01:10:43;14.00;99.90
39019;DHT22;24786;51.984;5.872;2022-10-29T01:15:44;13.90;99.90
39019;DHT22;24786;51.984;5.872;2022-10-29T01:18:40;14.00;99.90
39019;DHT22;24786;51.984;5.872;2022-10-29T01:21:20;13.90;99.90
39019;DHT22;24786;51.984;5.872;2022-10-29T01:29:43;13.80;99.90
39019;DHT22;24786;51.984;5.872;2022-10-29T01:35:14;13.80;99.90
39019;DHT22;24786;51.984;5.872;2022-10-29T01:41:07;13.70;99.90
39019;DHT22;24786;51.984;5.872;2022-10-29T01:44:00;13.70;99.90
39019;DHT22;24786;51.984;5.872;2022-10-29T01:46:36;13.70;99.90
39019;DHT22;24786;51.984;5.872;2022-10-29T01:49:10;13.70;99.90
39019;DHT22;24786;51.984;5.872;2022-10-29T01:51:38;13.70;99.90
39019;DHT22;24786;51.984;5.872;2022-10-29T01:54:09;13.60;99.90
39019;DHT22;24786;51.984;5.872;2022-10-29T01:56:36;13.70;99.90
39019;DHT22;24786;51.984;5.872;2022-10-29T01:59:05;13.80;99.90
39019;DHT22;24786;51.984;5.872;2022-10-29T02:04:52;13.70;99.90
39019;DHT22;24786;51.984;5.872;2022-10-29T02:10:19;13.70;99.90
39019;DHT22;24786;51.984;5.872;2022-10-29T02:12:52;13.70;99.90
39019;DHT22;24786;51.984;5.872;2022-10-29T02:16:02;13.80;99.90
39019;DHT22;24786;51.984;5.872;2022-10-29T02:18:21;13.70;99.90
39019;DHT22;24786;51.984;5.872;2022-10-29T02:20:47;13.60;99.90
39019;DHT22;24786;51.984;5.872;2022-10-29T02:23:14;13.70;99.90
39019;DHT22;24786;51.984;5.872;2022-10-29T02:25:40;13.70;99.90
39019;DHT22;24786;51.984;5.872;2022-10-29T02:28:06;13.70;99.90
39019;DHT22;24786;51.984;5.872;2022-10-29T02:30:31;13.70;99.90
39019;DHT22;24786;51.984;5.872;2022-10-29T02:32:57;13.70;99.90
39019;DHT22;24786;51.984;5.872;2022-10-29T02:35:23;13.70;99.90
39019;DHT22;24786;51.984;5.872;2022-10-29T02:37:48;13.70;99.90
39019;DHT22;24786;51.984;5.872;2022-10-29T02:40:14;13.80;99.90
39019;DHT22;24786;51.984;5.872;2022-10-29T02:42:40;13.70;99.90
39019;DHT22;24786;51.984;5.872;2022-10-29T02:45:05;13.70;99.90
39019;DHT22;24786;51.984;5.872;2022-10-29T02:47:31;13.70;99.90
39019;DHT22;24786;51.984;5.872;2022-10-29T02:49:57;13.70;99.90
39019;DHT22;24786;51.984;5.872;2022-10-29T02:52:22;13.70;99.90
39019;DHT22;24786;51.984;5.872;2022-10-29T02:54:48;13.70;99.90
39019;DHT22;24786;51.984;5.872;2022-10-29T02:57:13;13.70;99.90
39019;DHT22;24786;51.984;5.872;2022-10-29T02:59:39;13.70;99.90
39019;DHT22;24786;51.984;5.872;2022-10-29T03:02:05;13.70;99.90
39019;DHT22;24786;51.984;5.872;2022-10-29T03:04:30;13.70;99.90
39019;DHT22;24786;51.984;5.872;2022-10-29T03:06:56;13.70;99.90
39019;DHT22;24786;51.984;5.872;2022-10-29T03:09:22;13.70;99.90
39019;DHT22;24786;51.984;5.872;2022-10-29T03:11:47;13.70;99.90
39019;DHT22;24786;51.984;5.872;2022-10-29T03:14:13;13.70;99.90
39019;DHT22;24786;51.984;5.872;2022-10-29T03:16:38;13.70;99.90
39019;DHT22;24786;51.984;5.872;2022-10-29T03:19:04;13.70;99.90
39019;DHT22;24786;51.984;5.872;2022-10-29T03:21:29;13.70;99.90
39019;DHT22;24786;51.984;5.872;2022-10-29T03:23:55;13.70;99.90
39019;DHT22;24786;51.984;5.872;2022-10-29T03:26:21;13.70;99.90
39019;DHT22;24786;51.984;5.872;2022-10-29T03:28:46;13.70;99.90
39019;DHT22;24786;51.984;5.872;2022-10-29T03:31:12;13.80;99.90
39019;DHT22;24786;51.984;5.872;2022-10-29T03:33:37;13.80;99.90
39019;DHT22;24786;51.984;5.872;2022-10-29T03:36:05;13.80;99.90
39019;DHT22;24786;51.984;5.872;2022-10-29T03:38:31;13.80;99.90
39019;DHT22;24786;51.984;5.872;2022-10-29T03:40:57;13.70;99.90
39019;DHT22;24786;51.984;5.872;2022-10-29T03:43:23;13.80;99.90
39019;DHT22;24786;51.984;5.872;2022-10-29T03:45:53;13.70;99.90
39019;DHT22;24786;51.984;5.872;2022-10-29T03:48:20;13.80;99.90
39019;DHT22;24786;51.984;5.872;2022-10-29T03:50:57;13.70;99.90
39019;DHT22;24786;51.984;5.872;2022-10-29T03:53:25;13.80;99.90
39019;DHT22;24786;51.984;5.872;2022-10-29T03:55:52;13.80;99.90
39019;DHT22;24786;51.984;5.872;2022-10-29T03:58:18;13.70;99.90
39019;DHT22;24786;51.984;5.872;2022-10-29T04:00:51;13.80;99.90
39019;DHT22;24786;51.984;5.872;2022-10-29T04:03:17;13.80;99.90
39019;DHT22;24786;51.984;5.872;2022-10-29T04:05:42;13.70;99.90
39019;DHT22;24786;51.984;5.872;2022-10-29T04:08:08;13.70;99.90
39019;DHT22;24786;51.984;5.872;2022-10-29T04:10:33;13.70;99.90
39019;DHT22;24786;51.984;5.872;2022-10-29T04:12:59;13.80;99.90
39019;DHT22;24786;51.984;5.872;2022-10-29T04:15:25;13.80;99.90
39019;DHT22;24786;51.984;5.872;2022-10-29T04:17:50;13.90;99.90
39019;DHT22;24786;51.984;5.872;2022-10-29T04:20:16;13.90;99.90
39019;DHT22;24786;51.984;5.872;2022-10-29T04:22:42;13.90;99.90
39019;DHT22;24786;51.984;5.872;2022-10-29T04:25:08;13.90;99.90
39019;DHT22;24786;51.984;5.872;2022-10-29T04:27:34;13.90;99.90
39019;DHT22;24786;51.984;5.872;2022-10-29T04:30:00;13.90;99.90
39019;DHT22;24786;51.984;5.872;2022-10-29T04:32:26;13.90;99.90
39019;DHT22;24786;51.984;5.872;2022-10-29T04:34:52;13.90;99.90
39019;DHT22;24786;51.984;5.872;2022-10-29T04:37:17;13.90;99.90
39019;DHT22;24786;51.984;5.872;2022-10-29T04:39:43;13.90;99.90
39019;DHT22;24786;51.984;5.872;2022-10-29T04:42:08;13.90;99.90
39019;DHT22;24786;51.984;5.872;2022-10-29T04:44:34;13.90;99.90
39019;DHT22;24786;51.984;5.872;2022-10-29T04:47:00;14.00;99.90
39019;DHT22;24786;51.984;5.872;2022-10-29T04:49:25;13.90;99.90
39019;DHT22;24786;51.984;5.872;2022-10-29T04:51:51;13.80;99.90
39019;DHT22;24786;51.984;5.872;2022-10-29T04:54:16;14.00;99.90
39019;DHT22;24786;51.984;5.872;2022-10-29T04:56:42;13.90;99.90
39019;DHT22;24786;51.984;5.872;2022-10-29T04:59:07;13.90;99.90
39019;DHT22;24786;51.984;5.872;2022-10-29T05:01:33;13.90;99.90
39019;DHT22;24786;51.984;5.872;2022-10-29T05:03:59;13.90;99.90
39019;DHT22;24786;51.984;5.872;2022-10-29T05:06:24;13.90;99.90
39019;DHT22;24786;51.984;5.872;2022-10-29T05:08:50;13.90;99.90
39019;DHT22;24786;51.984;5.872;2022-10-29T05:11:15;13.90;99.90
39019;DHT22;24786;51.984;5.872;2022-10-29T05:13:41;13.80;99.90
39019;DHT22;24786;51.984;5.872;2022-10-29T05:16:07;13.90;99.90
39019;DHT22;24786;51.984;5.872;2022-10-29T05:18:33;13.80;99.90
39019;DHT22;24786;51.984;5.872;2022-10-29T05:21:01;13.90;99.90
39019;DHT22;24786;51.984;5.872;2022-10-29T05:23:27;13.80;99.90
39019;DHT22;24786;51.984;5.872;2022-10-29T05:25:54;13.80;99.90
39019;DHT22;24786;51.984;5.872;2022-10-29T05:28:21;13.80;99.90
39019;DHT22;24786;51.984;5.872;2022-10-29T05:30:49;13.80;99.90
39019;DHT22;24786;51.984;5.872;2022-10-29T05:33:18;13.90;99.90
39019;DHT22;24786;51.984;5.872;2022-10-29T05:35:44;13.80;99.90
39019;DHT22;24786;51.984;5.872;2022-10-29T05:38:11;13.90;99.90
39019;DHT22;24786;51.984;5.872;2022-10-29T05:40:37;13.80;99.90
39019;DHT22;24786;51.984;5.872;2022-10-29T05:43:04;14.00;99.90
39019;DHT22;24786;51.984;5.872;2022-10-29T05:45:29;13.90;99.90
39019;DHT22;24786;51.984;5.872;2022-10-29T05:48:00;14.00;99.90
39019;DHT22;24786;51.984;5.872;2022-10-29T05:50:27;14.00;99.90
39019;DHT22;24786;51.984;5.872;2022-10-29T05:52:56;14.00;99.90
39019;DHT22;24786;51.984;5.872;2022-10-29T05:55:22;14.00;99.90
39019;DHT22;24786;51.984;5.872;2022-10-29T05:57:47;14.00;99.90
39019;DHT22;24786;51.984;5.872;2022-10-29T06:00:13;14.00;99.90
39019;DHT22;24786;51.984;5.872;2022-10-29T06:02:42;14.10;99.90
39019;DHT22;24786;51.984;5.872;2022-10-29T06:05:08;14.10;99.90
39019;DHT22;24786;51.984;5.872;2022-10-29T06:07:33;14.10;99.90
39019;DHT22;24786;51.984;5.872;2022-10-29T06:09:59;14.10;99.90
39019;DHT22;24786;51.984;5.872;2022-10-29T06:12:24;14.00;99.90
39019;DHT22;24786;51.984;5.872;2022-10-29T06:14:50;14.10;99.90
39019;DHT22;24786;51.984;5.872;2022-10-29T06:17:15;14.10;99.90
39019;DHT22;24786;51.984;5.872;2022-10-29T06:19:42;14.20;99.90
39019;DHT22;24786;51.984;5.872;2022-10-29T06:22:08;14.20;99.90
39019;DHT22;24786;51.984;5.872;2022-10-29T06:24:33;14.20;99.90
39019;DHT22;24786;51.984;5.872;2022-10-29T06:26:59;14.20;99.90
39019;DHT22;24786;51.984;5.872;2022-10-29T06:29:24;14.20;99.90
39019;DHT22;24786;51.984;5.872;2022-10-29T06:31:50;14.20;99.90
39019;DHT22;24786;51.984;5.872;2022-10-29T06:34:16;14.20;99.90
39019;DHT22;24786;51.984;5.872;2022-10-29T06:36:41;14.20;99.90
39019;DHT22;24786;51.984;5.872;2022-10-29T06:39:07;14.30;99.90
39019;DHT22;24786;51.984;5.872;2022-10-29T06:41:32;14.30;99.90
39019;DHT22;24786;51.984;5.872;2022-10-29T06:43:58;14.20;99.90
39019;DHT22;24786;51.984;5.872;2022-10-29T06:46:24;14.30;99.90
39019;DHT22;24786;51.984;5.872;2022-10-29T06:48:49;14.30;99.90
39019;DHT22;24786;51.984;5.872;2022-10-29T06:51:15;14.30;99.90
39019;DHT22;24786;51.984;5.872;2022-10-29T06:53:40;14.40;99.90
39019;DHT22;24786;51.984;5.872;2022-10-29T06:56:06;14.30;99.90
39019;DHT22;24786;51.984;5.872;2022-10-29T06:58:32;14.30;99.90
39019;DHT22;24786;51.984;5.872;2022-10-29T07:01:00;14.40;99.90
39019;DHT22;24786;51.984;5.872;2022-10-29T07:03:26;14.50;99.90
39019;DHT22;24786;51.984;5.872;2022-10-29T07:05:56;14.30;99.90
39019;DHT22;24786;51.984;5.872;2022-10-29T07:08:22;14.40;99.90
39019;DHT22;24786;51.984;5.872;2022-10-29T07:10:52;14.40;99.90
39019;DHT22;24786;51.984;5.872;2022-10-29T07:13:18;14.40;99.90
39019;DHT22;24786;51.984;5.872;2022-10-29T07:15:44;14.40;99.90
39019;DHT22;24786;51.984;5.872;2022-10-29T07:18:10;14.60;99.90
39019;DHT22;24786;51.984;5.872;2022-10-29T07:20:38;14.50;99.90
39019;DHT22;24786;51.984;5.872;2022-10-29T07:23:04;14.50;99.90
39019;DHT22;24786;51.984;5.872;2022-10-29T07:25:30;14.50;99.90
39019;DHT22;24786;51.984;5.872;2022-10-29T07:28:03;14.70;99.90
39019;DHT22;24786;51.984;5.872;2022-10-29T07:30:29;14.60;99.90
39019;DHT22;24786;51.984;5.872;2022-10-29T07:32:55;14.60;99.90
39019;DHT22;24786;51.984;5.872;2022-10-29T07:35:20;14.60;99.90
39019;DHT22;24786;51.984;5.872;2022-10-29T07:37:46;14.70;99.90
39019;DHT22;24786;51.984;5.872;2022-10-29T07:40:12;14.70;99.90
39019;DHT22;24786;51.984;5.872;2022-10-29T07:42:37;14.80;99.90
39019;DHT22;24786;51.984;5.872;2022-10-29T07:45:03;14.80;99.90
39019;DHT22;24786;51.984;5.872;2022-10-29T07:47:29;14.90;99.90
39019;DHT22;24786;51.984;5.872;2022-10-29T07:49:54;14.90;99.90
39019;DHT22;24786;51.984;5.872;2022-10-29T07:52:20;15.00;99.90
39019;DHT22;24786;51.984;5.872;2022-10-29T07:54:45;15.10;99.90
39019;DHT22;24786;51.984;5.872;2022-10-29T07:57:11;15.10;99.90
39019;DHT22;24786;51.984;5.872;2022-10-29T07:59:36;15.10;99.90
39019;DHT22;24786;51.984;5.872;2022-10-29T08:02:02;15.10;99.90
39019;DHT22;24786;51.984;5.872;2022-10-29T08:04:28;15.10;99.90
39019;DHT22;24786;51.984;5.872;2022-10-29T08:06:53;15.20;99.90
39019;DHT22;24786;51.984;5.872;2022-10-29T08:09:19;15.20;99.90
39019;DHT22;24786;51.984;5.872;2022-10-29T08:11:45;15.30;99.90
39019;DHT22;24786;51.984;5.872;2022-10-29T08:14:11;15.20;99.90
39019;DHT22;24786;51.984;5.872;2022-10-29T08:16:37;15.30;99.90
39019;DHT22;24786;51.984;5.872;2022-10-29T08:19:02;15.30;99.90
39019;DHT22;24786;51.984;5.872;2022-10-29T08:21:28;15.30;99.90
39019;DHT22;24786;51.984;5.872;2022-10-29T08:23:54;15.40;99.90
39019;DHT22;24786;51.984;5.872;2022-10-29T08:26:20;15.50;99.90
39019;DHT22;24786;51.984;5.872;2022-10-29T08:28:46;15.40;99.90
39019;DHT22;24786;51.984;5.872;2022-10-29T08:31:11;15.50;99.90
39019;DHT22;24786;51.984;5.872;2022-10-29T08:33:37;15.60;99.90
39019;DHT22;24786;51.984;5.872;2022-10-29T08:36:03;15.60;99.90
39019;DHT22;24786;51.984;5.872;2022-10-29T08:38:28;15.60;99.90
39019;DHT22;24786;51.984;5.872;2022-10-29T08:44:14;15.70;99.90
39019;DHT22;24786;51.984;5.872;2022-10-29T08:46:49;15.80;99.90
39019;DHT22;24786;51.984;5.872;2022-10-29T08:49:21;15.90;99.90
39019;DHT22;24786;51.984;5.872;2022-10-29T08:51:55;15.90;99.90
39019;DHT22;24786;51.984;5.872;2022-10-29T08:54:25;16.00;99.90
39019;DHT22;24786;51.984;5.872;2022-10-29T08:56:54;16.00;99.90
39019;DHT22;24786;51.984;5.872;2022-10-29T08:59:23;16.00;99.90
39019;DHT22;24786;51.984;5.872;2022-10-29T09:01:50;16.00;99.90
39019;DHT22;24786;51.984;5.872;2022-10-29T09:04:35;16.10;99.90
39019;DHT22;24786;51.984;5.872;2022-10-29T09:07:08;16.10;99.90
39019;DHT22;24786;51.984;5.872;2022-10-29T09:15:03;16.20;99.90
39019;DHT22;24786;51.984;5.872;2022-10-29T09:17:51;16.30;99.90
39019;DHT22;24786;51.984;5.872;2022-10-29T09:20:41;16.40;99.90
39019;DHT22;24786;51.984;5.872;2022-10-29T09:23:42;16.40;99.90
39019;DHT22;24786;51.984;5.872;2022-10-29T09:26:17;16.50;99.90
39019;DHT22;24786;51.984;5.872;2022-10-29T09:31:40;16.60;99.90
39019;DHT22;24786;51.984;5.872;2022-10-29T09:34:17;16.70;99.90
39019;DHT22;24786;51.984;5.872;2022-10-29T09:36:44;16.70;99.90
39019;DHT22;24786;51.984;5.872;2022-10-29T09:39:34;16.80;99.90
39019;DHT22;24786;51.984;5.872;2022-10-29T09:42:04;16.80;99.90
39019;DHT22;24786;51.984;5.872;2022-10-29T09:44:50;16.80;99.90
39019;DHT22;24786;51.984;5.872;2022-10-29T09:50:39;16.90;99.90
39019;DHT22;24786;51.984;5.872;2022-10-29T09:53:06;16.90;99.90
39019;DHT22;24786;51.984;5.872;2022-10-29T09:55:43;16.90;99.90
39019;DHT22;24786;51.984;5.872;2022-10-29T09:58:28;17.00;99.90
39019;DHT22;24786;51.984;5.872;2022-10-29T10:00:54;16.90;99.90
39019;DHT22;24786;51.984;5.872;2022-10-29T10:06:03;17.00;99.90
39019;DHT22;24786;51.984;5.872;2022-10-29T10:08:30;17.10;99.90
39019;DHT22;24786;51.984;5.872;2022-10-29T10:11:04;17.10;99.90
39019;DHT22;24786;51.984;5.872;2022-10-29T10:13:34;17.10;99.90
39019;DHT22;24786;51.984;5.872;2022-10-29T10:16:02;17.10;99.90
39019;DHT22;24786;51.984;5.872;2022-10-29T10:18:39;17.20;99.90
39019;DHT22;24786;51.984;5.872;2022-10-29T10:21:09;17.20;99.90
39019;DHT22;24786;51.984;5.872;2022-10-29T10:23:49;17.20;99.90
39019;DHT22;24786;51.984;5.872;2022-10-29T10:26:41;17.30;99.90
39019;DHT22;24786;51.984;5.872;2022-10-29T10:31:40;17.30;99.90
39019;DHT22;24786;51.984;5.872;2022-10-29T10:42:37;17.50;99.90
39019;DHT22;24786;51.984;5.872;2022-10-29T10:45:23;17.70;99.90
39019;DHT22;24786;51.984;5.872;2022-10-29T10:47:55;17.60;99.90
39019;DHT22;24786;51.984;5.872;2022-10-29T10:50:31;17.80;99.90
39019;DHT22;24786;51.984;5.872;2022-10-29T10:53:00;18.00;99.90
39019;DHT22;24786;51.984;5.872;2022-10-29T10:55:37;18.10;99.90
39019;DHT22;24786;51.984;5.872;2022-10-29T10:58:29;18.20;99.90
39019;DHT22;24786;51.984;5.872;2022-10-29T11:00:59;18.40;99.90
39019;DHT22;24786;51.984;5.872;2022-10-29T11:03:31;18.40;99.90
39019;DHT22;24786;51.984;5.872;2022-10-29T11:06:07;18.60;99.90
39019;DHT22;24786;51.984;5.872;2022-10-29T11:08:45;18.50;99.90
39019;DHT22;24786;51.984;5.872;2022-10-29T11:11:23;18.60;99.90
39019;DHT22;24786;51.984;5.872;2022-10-29T11:13:53;18.60;99.90
39019;DHT22;24786;51.984;5.872;2022-10-29T11:16:28;18.70;99.90
39019;DHT22;24786;51.984;5.872;2022-10-29T11:19:17;18.70;99.90
39019;DHT22;24786;51.984;5.872;2022-10-29T11:22:01;18.80;99.90
39019;DHT22;24786;51.984;5.872;2022-10-29T11:30:24;19.00;99.90
39019;DHT22;24786;51.984;5.872;2022-10-29T11:32:51;19.00;99.90
39019;DHT22;24786;51.984;5.872;2022-10-29T11:35:31;19.00;99.90
39019;DHT22;24786;51.984;5.872;2022-10-29T11:38:03;19.20;99.90
39019;DHT22;24786;51.984;5.872;2022-10-29T11:40:49;19.30;99.90
39019;DHT22;24786;51.984;5.872;2022-10-29T11:43:19;19.40;99.90
39019;DHT22;24786;51.984;5.872;2022-10-29T11:52:04;19.50;99.90
39019;DHT22;24786;51.984;5.872;2022-10-29T12:00:19;19.60;99.90
39019;DHT22;24786;51.984;5.872;2022-10-29T12:05:45;19.70;99.90
39019;DHT22;24786;51.984;5.872;2022-10-29T12:10:53;19.70;99.90
39019;DHT22;24786;51.984;5.872;2022-10-29T12:13:35;19.80;99.90
39019;DHT22;24786;51.984;5.872;2022-10-29T12:21:54;20.00;99.90
39019;DHT22;24786;51.984;5.872;2022-10-29T12:27:12;20.00;99.90
39019;DHT22;24786;51.984;5.872;2022-10-29T12:40:34;20.00;99.90
39019;DHT22;24786;51.984;5.872;2022-10-29T12:43:05;20.10;99.90
39019;DHT22;24786;51.984;5.872;2022-10-29T12:46:09;20.20;99.90
39019;DHT22;24786;51.984;5.872;2022-10-29T12:49:05;20.40;99.90
39019;DHT22;24786;51.984;5.872;2022-10-29T12:51:52;20.50;99.90
39019;DHT22;24786;51.984;5.872;2022-10-29T12:54:38;20.50;99.90
39019;DHT22;24786;51.984;5.872;2022-10-29T12:59:41;20.70;99.90
39019;DHT22;24786;51.984;5.872;2022-10-29T13:07:37;20.70;99.90
39019;DHT22;24786;51.984;5.872;2022-10-29T13:20:41;20.70;99.90
39019;DHT22;24786;51.984;5.872;2022-10-29T13:25:58;20.70;99.90
39019;DHT22;24786;51.984;5.872;2022-10-29T13:30:51;20.70;99.90
39019;DHT22;24786;51.984;5.872;2022-10-29T13:36:01;20.90;99.90
39019;DHT22;24786;51.984;5.872;2022-10-29T13:41:35;21.00;99.90
39019;DHT22;24786;51.984;5.872;2022-10-29T13:49:10;21.30;99.90
39019;DHT22;24786;51.984;5.872;2022-10-29T13:51:50;21.40;99.90
39019;DHT22;24786;51.984;5.872;2022-10-29T13:54:35;21.40;99.90
39019;DHT22;24786;51.984;5.872;2022-10-29T13:59:47;21.30;99.90
39019;DHT22;24786;51.984;5.872;2022-10-29T14:13:31;21.10;99.90
39019;DHT22;24786;51.984;5.872;2022-10-29T14:18:31;20.90;99.90
39019;DHT22;24786;51.984;5.872;2022-10-29T14:20:59;20.90;99.90
39019;DHT22;24786;51.984;5.872;2022-10-29T14:23:26;20.80;99.90
39019;DHT22;24786;51.984;5.872;2022-10-29T14:25:54;20.70;99.90
39019;DHT22;24786;51.984;5.872;2022-10-29T14:28:24;20.80;99.90
39019;DHT22;24786;51.984;5.872;2022-10-29T14:31:12;20.70;99.90
39019;DHT22;24786;51.984;5.872;2022-10-29T14:33:42;20.70;99.90
39019;DHT22;24786;51.984;5.872;2022-10-29T14:39:04;20.60;99.90
39019;DHT22;24786;51.984;5.872;2022-10-29T14:41:32;20.60;99.90
39019;DHT22;24786;51.984;5.872;2022-10-29T14:46:35;20.50;99.90
39019;DHT22;24786;51.984;5.872;2022-10-29T14:49:12;20.50;99.90
39019;DHT22;24786;51.984;5.872;2022-10-29T14:51:47;20.40;99.90
39019;DHT22;24786;51.984;5.872;2022-10-29T14:54:18;20.50;99.90
39019;DHT22;24786;51.984;5.872;2022-10-29T14:56:47;20.40;99.90
39019;DHT22;24786;51.984;5.872;2022-10-29T14:59:18;20.30;99.90
39019;DHT22;24786;51.984;5.872;2022-10-29T15:01:48;20.40;99.90
39019;DHT22;24786;51.984;5.872;2022-10-29T15:04:18;20.30;99.90
39019;DHT22;24786;51.984;5.872;2022-10-29T15:06:44;20.30;99.90
39019;DHT22;24786;51.984;5.872;2022-10-29T15:09:12;20.20;99.90
39019;DHT22;24786;51.984;5.872;2022-10-29T15:16:55;20.20;99.90
39019;DHT22;24786;51.984;5.872;2022-10-29T15:19:21;20.10;99.90
39019;DHT22;24786;51.984;5.872;2022-10-29T15:21:47;20.10;99.90
39019;DHT22;24786;51.984;5.872;2022-10-29T15:24:18;20.10;99.90
39019;DHT22;24786;51.984;5.872;2022-10-29T15:26:55;20.10;99.90
39019;DHT22;24786;51.984;5.872;2022-10-29T15:29:25;20.10;99.90
39019;DHT22;24786;51.984;5.872;2022-10-29T15:31:53;20.00;99.90
39019;DHT22;24786;51.984;5.872;2022-10-29T15:34:30;20.00;99.90
39019;DHT22;24786;51.984;5.872;2022-10-29T15:36:56;19.90;99.90
39019;DHT22;24786;51.984;5.872;2022-10-29T15:39:28;19.80;99.90
39019;DHT22;24786;51.984;5.872;2022-10-29T15:42:00;19.80;99.90
39019;DHT22;24786;51.984;5.872;2022-10-29T15:44:39;19.80;99.90
39019;DHT22;24786;51.984;5.872;2022-10-29T15:47:27;19.90;99.90
39019;DHT22;24786;51.984;5.872;2022-10-29T15:49:53;19.80;99.90
39019;DHT22;24786;51.984;5.872;2022-10-29T15:52:19;19.70;99.90
39019;DHT22;24786;51.984;5.872;2022-10-29T15:54:46;19.70;99.90
39019;DHT22;24786;51.984;5.872;2022-10-29T15:57:13;19.70;99.90
39019;DHT22;24786;51.984;5.872;2022-10-29T15:59:39;19.70;99.90
39019;DHT22;24786;51.984;5.872;2022-10-29T16:02:13;19.60;99.90
39019;DHT22;24786;51.984;5.872;2022-10-29T16:04:39;19.60;99.90
39019;DHT22;24786;51.984;5.872;2022-10-29T16:07:09;19.50;99.90
39019;DHT22;24786;51.984;5.872;2022-10-29T16:09:43;19.50;99.90
39019;DHT22;24786;51.984;5.872;2022-10-29T16:12:10;19.40;99.90
39019;DHT22;24786;51.984;5.872;2022-10-29T16:14:36;19.40;99.90
39019;DHT22;24786;51.984;5.872;2022-10-29T16:17:01;19.40;99.90
39019;DHT22;24786;51.984;5.872;2022-10-29T16:19:27;19.40;99.90
39019;DHT22;24786;51.984;5.872;2022-10-29T16:21:53;19.40;99.90
39019;DHT22;24786;51.984;5.872;2022-10-29T16:24:18;19.30;99.90
39019;DHT22;24786;51.984;5.872;2022-10-29T16:26:44;19.20;99.90
39019;DHT22;24786;51.984;5.872;2022-10-29T16:29:09;19.30;99.90
39019;DHT22;24786;51.984;5.872;2022-10-29T16:31:35;19.20;99.90
39019;DHT22;24786;51.984;5.872;2022-10-29T16:34:03;19.20;99.90
39019;DHT22;24786;51.984;5.872;2022-10-29T16:36:29;19.20;99.90
39019;DHT22;24786;51.984;5.872;2022-10-29T16:38:54;19.10;99.90
39019;DHT22;24786;51.984;5.872;2022-10-29T16:41:20;19.10;99.90
39019;DHT22;24786;51.984;5.872;2022-10-29T16:43:46;19.10;99.90
39019;DHT22;24786;51.984;5.872;2022-10-29T16:46:12;19.00;99.90
39019;DHT22;24786;51.984;5.872;2022-10-29T16:48:38;19.00;99.90
39019;DHT22;24786;51.984;5.872;2022-10-29T16:51:04;19.00;99.90
39019;DHT22;24786;51.984;5.872;2022-10-29T16:53:30;19.00;99.90
39019;DHT22;24786;51.984;5.872;2022-10-29T16:55:56;19.00;99.90
39019;DHT22;24786;51.984;5.872;2022-10-29T16:58:22;18.90;99.90
39019;DHT22;24786;51.984;5.872;2022-10-29T17:00:48;18.90;99.90
39019;DHT22;24786;51.984;5.872;2022-10-29T17:03:15;18.90;99.90
39019;DHT22;24786;51.984;5.872;2022-10-29T17:05:42;18.90;99.90
39019;DHT22;24786;51.984;5.872;2022-10-29T17:08:09;18.90;99.90
39019;DHT22;24786;51.984;5.872;2022-10-29T17:10:38;18.90;99.90
39019;DHT22;24786;51.984;5.872;2022-10-29T17:13:11;18.80;99.90
39019;DHT22;24786;51.984;5.872;2022-10-29T17:15:39;18.80;99.90
39019;DHT22;24786;51.984;5.872;2022-10-29T17:18:05;18.70;99.90
39019;DHT22;24786;51.984;5.872;2022-10-29T17:20:31;18.70;99.90
39019;DHT22;24786;51.984;5.872;2022-10-29T17:22:56;18.70;99.90
39019;DHT22;24786;51.984;5.872;2022-10-29T17:25:22;18.70;99.90
39019;DHT22;24786;51.984;5.872;2022-10-29T17:27:48;18.60;99.90
39019;DHT22;24786;51.984;5.872;2022-10-29T17:30:13;18.50;99.90
39019;DHT22;24786;51.984;5.872;2022-10-29T17:32:39;18.60;99.90
39019;DHT22;24786;51.984;5.872;2022-10-29T17:35:05;18.60;99.90
39019;DHT22;24786;51.984;5.872;2022-10-29T17:37:30;18.60;99.90
39019;DHT22;24786;51.984;5.872;2022-10-29T17:39:56;18.60;99.90
39019;DHT22;24786;51.984;5.872;2022-10-29T17:42:21;18.50;99.90
39019;DHT22;24786;51.984;5.872;2022-10-29T17:44:47;18.50;99.90
39019;DHT22;24786;51.984;5.872;2022-10-29T17:47:13;18.50;99.90
39019;DHT22;24786;51.984;5.872;2022-10-29T17:49:39;18.50;99.90
39019;DHT22;24786;51.984;5.872;2022-10-29T17:52:05;18.40;99.90
39019;DHT22;24786;51.984;5.872;2022-10-29T17:54:31;18.50;99.90
39019;DHT22;24786;51.984;5.872;2022-10-29T17:56:56;18.50;99.90
39019;DHT22;24786;51.984;5.872;2022-10-29T17:59:22;18.40;99.90
39019;DHT22;24786;51.984;5.872;2022-10-29T18:01:48;18.40;99.90
39019;DHT22;24786;51.984;5.872;2022-10-29T18:04:13;18.30;99.90
39019;DHT22;24786;51.984;5.872;2022-10-29T18:06:39;18.30;99.90
39019;DHT22;24786;51.984;5.872;2022-10-29T18:09:05;18.30;99.90
39019;DHT22;24786;51.984;5.872;2022-10-29T18:11:30;18.30;99.90
39019;DHT22;24786;51.984;5.872;2022-10-29T18:13:56;18.20;99.90
39019;DHT22;24786;51.984;5.872;2022-10-29T18:16:24;18.20;99.90